createdAt,value
2022-10-17T00:01:23.649Z,15.10
2022-10-17T00:03:53.047Z,15.50
2022-10-17T00:06:24.736Z,21.73
2022-10-17T00:08:54.887Z,21.30
2022-10-17T00:11:27.548Z,17.85
2022-10-17T00:13:57.172Z,14.73
2022-10-17T00:16:34.385Z,14.20
2022-10-17T00:19:07.421Z,13.85
2022-10-17T00:21:53.661Z,13.88
2022-10-17T00:24:31.923Z,14.15
2022-10-17T00:27:03.076Z,14.90
2022-10-17T00:29:35.180Z,14.52
2022-10-17T00:32:04.770Z,13.63
2022-10-17T00:34:35.330Z,15.70
2022-10-17T00:37:08.896Z,15.77
2022-10-17T00:39:39.024Z,28.85
2022-10-17T00:42:12.137Z,16.35
2022-10-17T00:44:47.690Z,14.85
2022-10-17T00:47:23.704Z,21.92
2022-10-17T00:49:55.576Z,14.98
2022-10-17T00:52:34.859Z,17.02
2022-10-17T00:55:18.467Z,20.23
2022-10-17T00:57:49.352Z,17.73
2022-10-17T01:00:30.875Z,16.35
2022-10-17T01:03:03.475Z,16.50
2022-10-17T01:05:33.475Z,16.80
2022-10-17T01:08:03.326Z,18.70
2022-10-17T01:10:49.830Z,16.67
2022-10-17T01:13:33.137Z,16.10
2022-10-17T01:16:17.211Z,17.48
2022-10-17T01:18:49.619Z,17.83
2022-10-17T01:21:28.459Z,23.23
2022-10-17T01:24:26.456Z,21.20
2022-10-17T01:27:33.529Z,25.38
2022-10-17T01:30:44.325Z,28.67
2022-10-17T01:33:33.501Z,21.75
2022-10-17T01:36:33.145Z,19.80
2022-10-17T01:39:07.627Z,19.75
2022-10-17T01:41:49.474Z,20.15
2022-10-17T01:44:41.827Z,19.65
2022-10-17T01:47:17.809Z,19.70
2022-10-17T01:49:49.747Z,21.58
2022-10-17T01:52:27.293Z,22.60
2022-10-17T01:55:01.408Z,25.55
2022-10-17T01:57:41.104Z,25.95
2022-10-17T02:00:14.373Z,24.25
2022-10-17T02:02:50.319Z,23.70
2022-10-17T02:05:22.272Z,24.33
2022-10-17T02:07:58.537Z,23.67
2022-10-17T02:10:34.716Z,25.23
2022-10-17T02:13:12.386Z,25.70
2022-10-17T02:15:58.128Z,23.67
2022-10-17T02:18:42.386Z,27.52
2022-10-17T02:21:37.384Z,24.70
2022-10-17T02:24:21.372Z,23.67
2022-10-17T02:27:11.836Z,22.08
2022-10-17T02:29:57.564Z,21.10
2022-10-17T02:32:34.964Z,19.88
2022-10-17T02:35:08.200Z,24.50
2022-10-17T02:37:37.735Z,27.38
2022-10-17T02:40:09.107Z,28.42
2022-10-17T02:42:41.769Z,31.48
2022-10-17T02:45:12.542Z,30.88
2022-10-17T02:47:54.471Z,29.35
2022-10-17T02:50:33.720Z,30.33
2022-10-17T02:53:06.027Z,25.83
2022-10-17T02:55:41.810Z,27.35
2022-10-17T02:58:25.572Z,25.92
2022-10-17T03:00:54.441Z,27.30
2022-10-17T03:03:25.028Z,24.45
2022-10-17T03:05:57.511Z,23.65
2022-10-17T03:08:29.214Z,29.63
2022-10-17T03:10:59.129Z,23.92
2022-10-17T03:13:39.688Z,26.45
2022-10-17T03:16:09.226Z,28.17
2022-10-17T03:18:44.359Z,28.25
2022-10-17T03:21:19.766Z,24.42
2022-10-17T03:23:54.841Z,24.80
2022-10-17T03:26:25.152Z,25.23
2022-10-17T03:28:55.543Z,24.98
2022-10-17T03:31:28.375Z,19.25
2022-10-17T03:34:13.728Z,19.70
2022-10-17T03:36:44.028Z,21.55
2022-10-17T03:39:34.772Z,23.23
2022-10-17T03:42:11.060Z,23.15
2022-10-17T03:44:40.173Z,25.98
2022-10-17T03:47:11.929Z,26.10
2022-10-17T03:49:44.297Z,51.55
2022-10-17T03:52:19.230Z,40.92
2022-10-17T03:54:48.327Z,38.13
2022-10-17T03:57:32.471Z,41.15
2022-10-17T04:00:02.000Z,45.40
2022-10-17T04:03:00.410Z,46.22
2022-10-17T04:05:31.800Z,47.25
2022-10-17T04:08:11.501Z,47.67
2022-10-17T04:11:17.373Z,51.00
2022-10-17T04:13:47.590Z,48.50
2022-10-17T04:16:17.292Z,46.90
2022-10-17T04:19:03.191Z,45.42
2022-10-17T04:21:37.985Z,47.05
2022-10-17T04:24:11.048Z,52.67
2022-10-17T04:27:00.048Z,30.00
2022-10-17T04:29:35.798Z,26.52
2022-10-17T04:32:18.920Z,24.33
2022-10-17T04:35:02.382Z,23.98
2022-10-17T04:37:33.005Z,21.65
2022-10-17T04:40:06.745Z,23.65
2022-10-17T04:42:37.395Z,21.50
2022-10-17T04:45:08.486Z,20.60
2022-10-17T04:47:37.981Z,21.40
2022-10-17T04:50:10.729Z,35.75
2022-10-17T04:52:44.122Z,33.45
2022-10-17T04:55:15.331Z,37.42
2022-10-17T04:57:47.159Z,39.00
2022-10-17T05:00:23.305Z,47.50
2022-10-17T05:03:13.872Z,49.65
2022-10-17T05:05:43.381Z,44.88
2022-10-17T05:08:14.645Z,49.97
2022-10-17T05:10:48.924Z,53.20
2022-10-17T05:13:18.138Z,52.63
2022-10-17T05:15:49.804Z,58.03
2022-10-17T05:18:24.442Z,59.97
2022-10-17T05:20:55.040Z,59.67
2022-10-17T05:23:24.510Z,56.65
2022-10-17T05:25:58.259Z,59.15
2022-10-17T05:28:30.209Z,53.28
2022-10-17T05:31:09.439Z,46.80
2022-10-17T05:33:39.967Z,41.92
2022-10-17T05:36:09.494Z,38.15
2022-10-17T05:38:38.300Z,34.45
2022-10-17T05:41:13.777Z,41.88
2022-10-17T05:43:41.933Z,40.10
2022-10-17T05:46:12.052Z,39.03
2022-10-17T05:48:41.676Z,36.17
2022-10-17T05:51:16.578Z,31.25
2022-10-17T05:53:47.120Z,17.95
2022-10-17T05:58:57.407Z,20.75
2022-10-17T06:02:07.156Z,25.95
2022-10-17T06:04:38.141Z,24.33
2022-10-17T06:07:08.392Z,23.13
2022-10-17T06:09:37.263Z,25.50
2022-10-17T06:12:05.670Z,23.67
2022-10-17T06:14:34.529Z,21.85
2022-10-17T06:17:05.255Z,20.75
2022-10-17T06:19:38.294Z,18.88
2022-10-17T06:22:06.996Z,18.42
2022-10-17T06:24:42.402Z,15.77
2022-10-17T06:27:21.072Z,12.15
2022-10-17T06:29:51.452Z,14.63
2022-10-17T06:32:25.670Z,18.25
2022-10-17T06:34:54.873Z,26.38
2022-10-17T06:37:24.335Z,16.85
2022-10-17T06:39:58.215Z,13.82
2022-10-17T06:42:30.609Z,23.30
2022-10-17T06:45:11.238Z,18.50
2022-10-17T06:48:16.550Z,14.67
2022-10-17T06:50:52.234Z,13.55
2022-10-17T06:59:32.734Z,17.15
2022-10-17T07:02:15.166Z,16.17
2022-10-17T07:04:47.280Z,13.00
2022-10-17T07:07:17.427Z,13.32
2022-10-17T07:09:52.114Z,13.77
2022-10-17T07:12:22.704Z,13.15
2022-10-17T07:14:58.144Z,11.70
2022-10-17T07:17:26.442Z,12.77
2022-10-17T07:20:02.256Z,10.85
2022-10-17T07:22:43.999Z,11.43
2022-10-17T07:25:13.455Z,14.20
2022-10-17T07:28:02.318Z,13.40
2022-10-17T07:30:35.000Z,12.00
2022-10-17T07:33:15.932Z,11.45
2022-10-17T07:35:48.009Z,12.38
2022-10-17T07:38:18.846Z,12.35
2022-10-17T07:40:55.957Z,12.18
2022-10-17T07:43:26.335Z,15.30
2022-10-17T07:45:58.328Z,13.32
2022-10-17T07:48:26.981Z,12.93
2022-10-17T07:50:58.948Z,14.40
2022-10-17T07:53:32.042Z,20.17
2022-10-17T07:56:10.302Z,18.20
2022-10-17T07:58:45.224Z,16.02
2022-10-17T08:01:24.699Z,16.27
2022-10-17T08:03:54.409Z,15.02
2022-10-17T08:06:40.161Z,16.65
2022-10-17T08:09:08.895Z,15.25
2022-10-17T08:11:38.194Z,15.70
2022-10-17T08:14:07.314Z,18.25
2022-10-17T08:16:37.443Z,15.18
2022-10-17T08:21:44.144Z,15.98
2022-10-17T08:24:12.149Z,15.32
2022-10-17T08:26:44.595Z,16.38
2022-10-17T08:29:17.474Z,15.75
2022-10-17T08:31:49.917Z,17.48
2022-10-17T08:34:22.294Z,16.52
2022-10-17T08:36:50.594Z,16.45
2022-10-17T08:39:20.035Z,18.70
2022-10-17T08:42:35.566Z,15.00
2022-10-17T08:45:34.440Z,15.88
2022-10-17T08:48:13.330Z,16.73
2022-10-17T08:50:54.571Z,17.80
2022-10-17T08:53:43.687Z,17.25
2022-10-17T08:59:31.582Z,17.33
2022-10-17T09:02:26.588Z,18.90
2022-10-17T09:05:08.336Z,15.48
2022-10-17T09:08:07.118Z,16.02
2022-10-17T09:10:58.949Z,15.15
2022-10-17T09:13:38.685Z,15.95
2022-10-17T09:16:31.099Z,17.67
2022-10-17T09:19:11.708Z,16.08
2022-10-17T09:22:02.927Z,16.65
2022-10-17T09:24:50.975Z,18.60
2022-10-17T09:27:27.684Z,17.65
2022-10-17T09:30:44.592Z,15.98
2022-10-17T09:33:34.642Z,15.18
2022-10-17T09:36:13.589Z,15.75
2022-10-17T09:38:48.408Z,16.65
2022-10-17T09:44:25.277Z,15.05
2022-10-17T09:47:07.236Z,14.65
2022-10-17T09:49:41.250Z,14.27
2022-10-17T09:52:42.529Z,11.73
2022-10-17T09:55:35.933Z,11.95
2022-10-17T09:58:07.983Z,11.35
2022-10-17T10:00:42.514Z,9.43
2022-10-17T10:03:30.460Z,8.60
2022-10-17T10:06:20.390Z,8.80
2022-10-17T10:08:55.118Z,14.35
2022-10-17T10:11:44.635Z,8.38
2022-10-17T10:14:34.241Z,8.02
2022-10-17T10:17:05.047Z,8.25
2022-10-17T10:19:38.910Z,7.78
2022-10-17T10:22:23.967Z,7.40
2022-10-17T10:25:20.161Z,7.38
2022-10-17T10:27:51.035Z,9.63
2022-10-17T10:30:34.814Z,9.13
2022-10-17T10:33:11.207Z,9.73
2022-10-17T10:38:28.031Z,9.32
2022-10-17T10:41:01.903Z,9.32
2022-10-17T10:43:43.315Z,8.23
2022-10-17T10:46:21.095Z,9.05
2022-10-17T10:49:08.119Z,9.80
2022-10-17T10:51:47.441Z,8.95
2022-10-17T10:54:21.882Z,9.27
2022-10-17T10:56:54.887Z,10.15
2022-10-17T10:59:48.012Z,11.35
2022-10-17T11:06:20.510Z,10.18
2022-10-17T11:10:53.876Z,10.88
2022-10-17T11:14:25.340Z,11.77
2022-10-17T11:17:42.414Z,11.90
2022-10-17T11:21:04.226Z,12.00
2022-10-17T11:24:50.489Z,11.05
2022-10-17T11:28:59.853Z,11.82
2022-10-17T11:32:04.335Z,11.30
2022-10-17T11:35:10.301Z,12.93
2022-10-17T11:38:33.337Z,12.77
2022-10-17T11:41:04.386Z,24.83
2022-10-17T11:44:08.054Z,16.75
2022-10-17T12:01:31.844Z,11.88
2022-10-17T12:07:53.006Z,12.80
2022-10-17T12:10:58.474Z,12.98
2022-10-17T12:21:54.217Z,11.55
2022-10-17T12:31:36.201Z,10.85
2022-10-17T12:34:05.600Z,11.45
2022-10-17T12:36:49.573Z,11.07
2022-10-17T12:39:27.692Z,11.32
2022-10-17T12:41:56.835Z,11.18
2022-10-17T12:44:39.863Z,11.82
2022-10-17T12:47:38.514Z,11.82
2022-10-17T12:51:12.139Z,11.60
2022-10-17T12:54:13.474Z,12.15
2022-10-17T12:56:48.027Z,11.88
2022-10-17T12:59:33.607Z,11.57
2022-10-17T13:02:27.968Z,12.45
2022-10-17T13:05:11.100Z,13.70
2022-10-17T13:07:42.357Z,15.13
2022-10-17T13:10:20.521Z,13.55
2022-10-17T13:13:05.821Z,16.65
2022-10-17T13:15:36.791Z,13.88
2022-10-17T13:18:07.947Z,15.07
2022-10-17T13:20:36.266Z,14.98
2022-10-17T13:23:07.138Z,13.85
2022-10-17T13:25:38.880Z,14.52
2022-10-17T13:28:14.395Z,13.48
2022-10-17T13:30:49.776Z,14.68
2022-10-17T13:33:44.856Z,15.00
2022-10-17T13:36:19.930Z,14.13
2022-10-17T13:38:49.070Z,16.20
2022-10-17T13:41:36.241Z,13.98
2022-10-17T13:44:13.491Z,15.85
2022-10-17T13:46:44.702Z,14.00
2022-10-17T13:49:16.381Z,14.40
2022-10-17T13:51:49.814Z,14.73
2022-10-17T13:54:19.930Z,13.52
2022-10-17T13:56:56.565Z,15.55
2022-10-17T13:59:38.282Z,13.93
2022-10-17T14:02:26.509Z,14.25
2022-10-17T14:05:16.759Z,24.40
2022-10-17T14:08:12.707Z,17.67
2022-10-17T14:10:46.591Z,58.60
2022-10-17T14:13:28.403Z,96.80
2022-10-17T14:15:59.931Z,62.55
2022-10-17T14:18:36.143Z,87.90
2022-10-17T14:24:23.581Z,98.43
2022-10-17T14:27:05.779Z,53.03
2022-10-17T14:29:53.245Z,49.63
2022-10-17T14:38:36.090Z,31.52
2022-10-17T14:41:41.887Z,24.90
2022-10-17T14:44:33.343Z,51.08
2022-10-17T14:47:30.854Z,26.80
2022-10-17T14:50:07.450Z,28.13
2022-10-17T14:52:38.910Z,26.45
2022-10-17T14:55:29.890Z,34.60
2022-10-17T14:58:00.179Z,35.55
2022-10-17T15:00:30.854Z,25.30
2022-10-17T15:03:18.637Z,24.35
2022-10-17T15:05:56.475Z,21.45
2022-10-17T15:08:26.691Z,24.70
2022-10-17T15:11:02.207Z,35.05
2022-10-17T15:13:37.928Z,25.17
2022-10-17T15:16:24.767Z,24.73
2022-10-17T15:18:55.805Z,28.60
2022-10-17T15:21:37.573Z,30.60
2022-10-17T15:24:11.099Z,63.00
2022-10-17T15:26:40.528Z,35.90
2022-10-17T15:29:09.461Z,42.83
2022-10-17T15:31:37.993Z,31.83
2022-10-17T15:34:11.504Z,48.60
2022-10-17T15:36:42.252Z,48.15
2022-10-17T15:39:12.007Z,32.55
2022-10-17T15:41:49.181Z,40.35
2022-10-17T15:44:20.080Z,28.45
2022-10-17T15:46:52.161Z,31.02
2022-10-17T15:49:23.453Z,66.82
2022-10-17T15:51:56.922Z,27.58
2022-10-17T15:54:31.690Z,33.53
2022-10-17T15:57:01.415Z,31.33
2022-10-17T15:59:35.642Z,35.58
2022-10-17T16:05:01.284Z,28.35
2022-10-17T16:07:45.030Z,26.88
2022-10-17T16:15:59.112Z,32.80
2022-10-17T16:18:29.144Z,31.23
2022-10-17T16:20:58.493Z,46.88
2022-10-17T16:23:28.440Z,29.90
2022-10-17T16:25:56.494Z,30.85
2022-10-17T16:28:26.481Z,32.33
2022-10-17T16:30:58.598Z,36.25
2022-10-17T16:33:28.229Z,30.33
2022-10-17T16:35:57.379Z,34.72
2022-10-17T16:38:28.034Z,31.67
2022-10-17T16:40:58.904Z,32.35
2022-10-17T16:47:09.778Z,38.10
2022-10-17T16:53:35.057Z,30.23
2022-10-17T16:56:20.087Z,31.98
2022-10-17T16:58:54.113Z,23.98
2022-10-17T17:01:38.791Z,28.00
2022-10-17T17:04:09.698Z,39.15
2022-10-17T17:06:38.212Z,34.03
2022-10-17T17:09:11.823Z,30.35
2022-10-17T17:11:42.615Z,36.67
2022-10-17T17:14:12.549Z,43.22
2022-10-17T17:16:47.326Z,42.10
2022-10-17T17:19:23.627Z,27.23
2022-10-17T17:22:14.395Z,28.33
2022-10-17T17:27:25.218Z,31.20
2022-10-17T17:29:57.471Z,36.70
2022-10-17T17:32:29.595Z,32.85
2022-10-17T17:34:59.116Z,27.40
2022-10-17T17:37:29.486Z,29.33
2022-10-17T17:39:58.161Z,30.77
2022-10-17T17:42:29.811Z,39.50
2022-10-17T17:45:01.108Z,39.83
2022-10-17T17:47:39.766Z,29.92
2022-10-17T17:50:17.261Z,30.57
2022-10-17T17:56:00.427Z,29.80
2022-10-17T17:58:30.968Z,25.40
2022-10-17T18:03:55.303Z,26.73
2022-10-17T18:09:24.873Z,50.97
2022-10-17T18:12:11.019Z,33.28
2022-10-17T18:14:42.364Z,26.38
2022-10-17T18:17:13.673Z,29.83
2022-10-17T18:19:43.316Z,27.75
2022-10-17T18:22:12.433Z,30.13
2022-10-17T18:24:42.512Z,26.65
2022-10-17T18:27:13.396Z,25.00
2022-10-17T18:29:47.948Z,24.37
2022-10-17T18:32:18.292Z,24.35
2022-10-17T18:34:51.578Z,24.23
2022-10-17T18:37:25.116Z,25.05
2022-10-17T18:39:57.894Z,33.03
2022-10-17T18:42:26.214Z,60.60
2022-10-17T18:45:09.291Z,41.45
2022-10-17T18:47:43.598Z,61.05
2022-10-17T18:50:14.808Z,30.10
2022-10-17T18:52:57.273Z,37.80
2022-10-17T18:55:26.279Z,29.90
2022-10-17T18:57:56.794Z,34.63
2022-10-17T19:00:39.060Z,31.13
2022-10-17T19:03:09.908Z,26.95
2022-10-17T19:05:40.399Z,25.55
2022-10-17T19:08:10.513Z,23.17
2022-10-17T19:10:47.773Z,25.35
2022-10-17T19:13:21.731Z,25.00
2022-10-17T19:16:44.024Z,25.85
2022-10-17T19:19:28.897Z,33.70
2022-10-17T19:22:06.483Z,27.80
2022-10-17T19:24:42.079Z,25.90
2022-10-17T19:27:27.346Z,29.88
2022-10-17T19:29:59.900Z,24.38
2022-10-17T19:32:53.915Z,25.25
2022-10-17T19:35:30.940Z,23.63
2022-10-17T19:38:09.659Z,21.17
2022-10-17T19:44:16.434Z,23.42
2022-10-17T19:46:51.231Z,26.27
2022-10-17T19:49:22.146Z,75.20
2022-10-17T19:51:50.619Z,39.45
2022-10-17T19:54:21.106Z,24.40
2022-10-17T19:56:51.046Z,23.33
2022-10-17T19:59:29.743Z,20.75
2022-10-17T20:02:06.116Z,23.60
2022-10-17T20:04:54.376Z,23.50
2022-10-17T20:07:35.790Z,23.20
2022-10-17T20:10:14.878Z,22.40
2022-10-17T20:15:15.692Z,21.10
2022-10-17T20:17:46.048Z,23.77
2022-10-17T20:20:22.036Z,24.02
2022-10-17T20:23:30.474Z,27.33
2022-10-17T20:26:37.012Z,26.08
2022-10-17T20:29:16.227Z,24.63
2022-10-17T20:31:48.917Z,20.38
2022-10-17T20:34:20.112Z,24.85
2022-10-17T20:36:57.631Z,20.77
2022-10-17T20:39:33.261Z,22.52
2022-10-17T20:42:02.792Z,24.13
2022-10-17T20:44:30.996Z,28.25
2022-10-17T20:47:11.880Z,38.80
2022-10-17T20:49:55.891Z,36.53
2022-10-17T20:52:26.004Z,37.70
2022-10-17T20:54:55.502Z,22.70
2022-10-17T20:57:24.345Z,21.63
2022-10-17T20:59:55.595Z,21.10
2022-10-17T21:02:26.610Z,22.13
2022-10-17T21:04:56.635Z,21.85
2022-10-17T21:07:27.454Z,20.65
2022-10-17T21:10:00.317Z,21.02
2022-10-17T21:12:53.851Z,21.55
2022-10-17T21:15:26.125Z,20.90
2022-10-17T21:17:59.294Z,21.25
2022-10-17T21:20:44.484Z,22.00
2022-10-17T21:23:15.030Z,21.50
2022-10-17T21:25:43.226Z,22.75
2022-10-17T21:28:20.936Z,23.85
2022-10-17T21:30:50.773Z,23.83
2022-10-17T21:33:29.864Z,25.58
2022-10-17T21:35:58.856Z,30.10
2022-10-17T21:38:32.655Z,28.42
2022-10-17T21:44:02.080Z,25.38
2022-10-17T21:46:33.901Z,25.77
2022-10-17T21:49:04.542Z,25.02
2022-10-17T21:51:36.188Z,21.90
2022-10-17T21:54:07.583Z,22.70
2022-10-17T21:56:50.007Z,22.08
2022-10-17T21:59:23.105Z,20.80
2022-10-17T22:01:59.131Z,21.30
2022-10-17T22:04:32.311Z,22.70
2022-10-17T22:07:05.130Z,19.83
2022-10-17T22:09:35.952Z,20.08
2022-10-17T22:12:05.814Z,20.52
2022-10-17T22:14:40.959Z,24.17
2022-10-17T22:17:30.108Z,29.35
2022-10-17T22:20:01.723Z,31.98
2022-10-17T22:22:31.772Z,33.22
2022-10-17T22:25:07.980Z,33.67
2022-10-17T22:27:44.535Z,31.05
2022-10-17T22:30:33.975Z,31.13
2022-10-17T22:33:02.448Z,35.20
2022-10-17T22:35:31.599Z,36.78
2022-10-17T22:38:01.209Z,32.55
2022-10-17T22:40:30.510Z,28.70
2022-10-17T22:43:20.478Z,26.70
2022-10-17T22:45:54.342Z,24.25
2022-10-17T22:48:27.079Z,24.38
2022-10-17T22:51:00.441Z,20.80
2022-10-17T22:53:32.341Z,21.00
2022-10-17T22:56:10.516Z,20.63
2022-10-17T22:58:43.449Z,21.63
2022-10-17T23:01:27.075Z,23.73
2022-10-17T23:03:58.927Z,23.08
2022-10-17T23:06:30.252Z,22.45
2022-10-17T23:09:09.902Z,20.50
2022-10-17T23:11:41.309Z,19.17
2022-10-17T23:14:11.524Z,18.98
2022-10-17T23:16:43.041Z,18.60
2022-10-17T23:19:15.619Z,18.30
2022-10-17T23:21:48.785Z,18.55
2022-10-17T23:24:27.030Z,16.75
2022-10-17T23:27:02.075Z,20.05
2022-10-17T23:29:36.057Z,18.65
2022-10-17T23:32:06.415Z,17.60
2022-10-17T23:34:38.495Z,18.20
2022-10-17T23:37:10.972Z,18.23
2022-10-17T23:40:03.245Z,17.92
2022-10-17T23:42:32.217Z,18.70
2022-10-17T23:45:02.885Z,18.65
2022-10-17T23:47:32.760Z,18.50
2022-10-17T23:50:02.296Z,16.88
2022-10-17T23:52:39.346Z,17.98
2022-10-17T23:55:09.333Z,18.05
2022-10-17T23:57:41.623Z,18.30
